BWA419 TBPB-TTPP
Flight info
| Callsign | BWA419 |
|---|---|
| Flight time | 0h 39m |
| Altitude | 28000 |
| Route | LOGAN DCT NAPKO DCT LEXOR DCT TALUS |
| Aircraft | B38M/M-SDE1FGHILORVWXY/HB1 |
Departure
| Time | 2026-05-08 01:41 |
|---|---|
| Airport | Grantley Adams International Airport (TBPB) |
Arrival
| Time | 2026-05-08 02:20 |
|---|---|
| Airport | Piarco International Airport (TTPP) |
| Time | Latitude | Longitude | Altitude | Speed | Heading |
|---|---|---|---|---|---|
| 2026-05-08 01:19 | 13.07863 | -59.48815 | 177 ft | 0 kts | 347° |
| 2026-05-08 01:30 | 13.07862 | -59.48814 | 177 ft | 2 kts | 346° |
| 2026-05-08 01:30 | 13.07846 | -59.48810 | 177 ft | 2 kts | 337° |
| 2026-05-08 01:31 | 13.07833 | -59.48802 | 177 ft | 2 kts | 328° |
| 2026-05-08 01:31 | 13.07819 | -59.48793 | 177 ft | 2 kts | 320° |
| 2026-05-08 01:31 | 13.07808 | -59.48782 | 177 ft | 2 kts | 310° |
| 2026-05-08 01:31 | 13.07798 | -59.48769 | 177 ft | 2 kts | 301° |
| 2026-05-08 01:32 | 13.07789 | -59.48748 | 177 ft | 3 kts | 288° |
| 2026-05-08 01:32 | 13.07784 | -59.48728 | 177 ft | 0 kts | 276° |
| 2026-05-08 01:35 | 13.07784 | -59.48731 | 177 ft | 1 kts | 262° |
| 2026-05-08 01:35 | 13.07780 | -59.48738 | 177 ft | 2 kts | 238° |
| 2026-05-08 01:36 | 13.07758 | -59.48763 | 177 ft | 7 kts | 228° |
| 2026-05-08 01:36 | 13.07726 | -59.48822 | 177 ft | 12 kts | 252° |
| 2026-05-08 01:36 | 13.07702 | -59.48918 | 177 ft | 16 kts | 256° |
| 2026-05-08 01:36 | 13.07672 | -59.49040 | 177 ft | 19 kts | 255° |
| 2026-05-08 01:37 | 13.07639 | -59.49177 | 177 ft | 20 kts | 257° |
| 2026-05-08 01:37 | 13.07605 | -59.49321 | 177 ft | 22 kts | 256° |
| 2026-05-08 01:37 | 13.07567 | -59.49478 | 177 ft | 24 kts | 256° |
| 2026-05-08 01:37 | 13.07526 | -59.49643 | 177 ft | 25 kts | 256° |
| 2026-05-08 01:38 | 13.07485 | -59.49816 | 177 ft | 25 kts | 256° |
| 2026-05-08 01:38 | 13.07441 | -59.49998 | 177 ft | 27 kts | 256° |
| 2026-05-08 01:38 | 13.07395 | -59.50185 | 177 ft | 27 kts | 255° |
| 2026-05-08 01:38 | 13.07347 | -59.50376 | 178 ft | 28 kts | 255° |
| 2026-05-08 01:39 | 13.07298 | -59.50573 | 177 ft | 29 kts | 256° |
| 2026-05-08 01:39 | 13.07222 | -59.50725 | 177 ft | 15 kts | 184° |
| 2026-05-08 01:39 | 13.07138 | -59.50704 | 178 ft | 12 kts | 159° |
| 2026-05-08 01:39 | 13.07112 | -59.50636 | 178 ft | 11 kts | 80° |
| 2026-05-08 01:40 | 13.07130 | -59.50561 | 178 ft | 12 kts | 76° |
| 2026-05-08 01:40 | 13.07181 | -59.50356 | 179 ft | 60 kts | 76° |
| 2026-05-08 01:40 | 13.07340 | -59.49711 | 176 ft | 124 kts | 75° |
| 2026-05-08 01:40 | 13.07578 | -59.48727 | 353 ft | 151 kts | 77° |
| 2026-05-08 01:41 | 13.07779 | -59.47635 | 803 ft | 155 kts | 76° |
| 2026-05-08 01:41 | 13.07819 | -59.46551 | 1181 ft | 156 kts | 101° |
| 2026-05-08 01:41 | 13.07218 | -59.45612 | 1586 ft | 163 kts | 137° |
| 2026-05-08 01:41 | 13.06154 | -59.45210 | 1975 ft | 176 kts | 173° |
| 2026-05-08 01:42 | 13.04873 | -59.45514 | 2383 ft | 205 kts | 206° |
| 2026-05-08 01:42 | 13.03622 | -59.46365 | 2855 ft | 221 kts | 216° |
| 2026-05-08 01:42 | 13.02340 | -59.47354 | 3345 ft | 241 kts | 216° |
| 2026-05-08 01:42 | 13.00951 | -59.48430 | 3846 ft | 264 kts | 218° |
| 2026-05-08 01:43 | 12.99463 | -59.49682 | 4366 ft | 287 kts | 221° |
| 2026-05-08 01:43 | 12.97899 | -59.51047 | 4882 ft | 308 kts | 222° |
| 2026-05-08 01:43 | 12.96195 | -59.52524 | 5389 ft | 329 kts | 221° |
| 2026-05-08 01:43 | 12.94388 | -59.54070 | 5884 ft | 342 kts | 222° |
| 2026-05-08 01:44 | 12.92566 | -59.55616 | 6384 ft | 345 kts | 221° |
| 2026-05-08 01:44 | 12.90708 | -59.57192 | 6839 ft | 349 kts | 220° |
| 2026-05-08 01:44 | 12.88808 | -59.58796 | 7302 ft | 354 kts | 221° |
| 2026-05-08 01:44 | 12.86932 | -59.60383 | 7747 ft | 356 kts | 221° |
| 2026-05-08 01:45 | 12.84991 | -59.62039 | 8236 ft | 368 kts | 221° |
| 2026-05-08 01:45 | 12.83010 | -59.63732 | 8744 ft | 374 kts | 221° |
| 2026-05-08 01:45 | 12.81003 | -59.65448 | 9248 ft | 374 kts | 220° |
| 2026-05-08 01:45 | 12.79006 | -59.67165 | 9765 ft | 378 kts | 221° |
| 2026-05-08 01:46 | 12.77000 | -59.68894 | 10221 ft | 383 kts | 221° |
| 2026-05-08 01:46 | 12.74954 | -59.70665 | 10694 ft | 384 kts | 220° |
| 2026-05-08 01:46 | 12.72912 | -59.72438 | 11173 ft | 387 kts | 221° |
| 2026-05-08 01:46 | 12.70860 | -59.74217 | 11606 ft | 392 kts | 221° |
| 2026-05-08 01:47 | 12.68819 | -59.76093 | 12048 ft | 392 kts | 225° |
| 2026-05-08 01:47 | 12.66834 | -59.78041 | 12497 ft | 396 kts | 224° |
| 2026-05-08 01:47 | 12.64739 | -59.79849 | 12931 ft | 399 kts | 217° |
| 2026-05-08 01:48 | 12.60008 | -59.82870 | 13836 ft | 405 kts | 211° |
| 2026-05-08 01:48 | 12.57606 | -59.84417 | 14256 ft | 407 kts | 214° |
| 2026-05-08 01:48 | 12.55273 | -59.86085 | 14672 ft | 407 kts | 216° |
| 2026-05-08 01:48 | 12.52966 | -59.87716 | 15085 ft | 410 kts | 215° |
| 2026-05-08 01:49 | 12.50551 | -59.89332 | 15528 ft | 409 kts | 213° |
| 2026-05-08 01:49 | 12.48181 | -59.90909 | 15944 ft | 412 kts | 214° |
| 2026-05-08 01:49 | 12.45781 | -59.92552 | 16384 ft | 414 kts | 215° |
| 2026-05-08 01:49 | 12.43386 | -59.94203 | 16814 ft | 413 kts | 215° |
| 2026-05-08 01:50 | 12.41024 | -59.95808 | 17133 ft | 414 kts | 214° |
| 2026-05-08 01:50 | 12.38594 | -59.97451 | 17467 ft | 414 kts | 216° |
| 2026-05-08 01:50 | 12.36225 | -59.99061 | 17791 ft | 412 kts | 216° |
| 2026-05-08 01:50 | 12.33861 | -60.00672 | 18125 ft | 406 kts | 216° |
| 2026-05-08 01:51 | 12.31490 | -60.02286 | 18437 ft | 408 kts | 216° |
| 2026-05-08 01:51 | 12.29120 | -60.03895 | 18727 ft | 409 kts | 216° |
| 2026-05-08 01:51 | 12.26776 | -60.05487 | 19018 ft | 409 kts | 216° |
| 2026-05-08 01:51 | 12.24389 | -60.07109 | 19314 ft | 410 kts | 216° |
| 2026-05-08 01:52 | 12.22018 | -60.08720 | 19609 ft | 410 kts | 216° |
| 2026-05-08 01:52 | 12.19621 | -60.10348 | 19911 ft | 412 kts | 216° |
| 2026-05-08 01:52 | 12.17231 | -60.11970 | 20181 ft | 413 kts | 216° |
| 2026-05-08 01:52 | 12.14857 | -60.13581 | 20412 ft | 414 kts | 216° |
| 2026-05-08 01:53 | 12.12452 | -60.15220 | 20644 ft | 414 kts | 216° |
| 2026-05-08 01:53 | 12.10070 | -60.16893 | 20887 ft | 415 kts | 217° |
| 2026-05-08 01:53 | 12.07716 | -60.18568 | 21121 ft | 417 kts | 217° |
| 2026-05-08 01:53 | 12.05315 | -60.20250 | 21364 ft | 416 kts | 216° |
| 2026-05-08 01:54 | 12.02938 | -60.21898 | 21603 ft | 417 kts | 216° |
| 2026-05-08 01:54 | 12.00534 | -60.23576 | 21855 ft | 418 kts | 217° |
| 2026-05-08 01:54 | 11.98130 | -60.25264 | 22103 ft | 418 kts | 217° |
| 2026-05-08 01:54 | 11.95748 | -60.26932 | 22350 ft | 419 kts | 217° |
| 2026-05-08 01:55 | 11.93328 | -60.28621 | 22607 ft | 421 kts | 216° |
| 2026-05-08 01:55 | 11.90904 | -60.30312 | 22878 ft | 422 kts | 217° |
| 2026-05-08 01:55 | 11.88499 | -60.31993 | 23115 ft | 422 kts | 217° |
| 2026-05-08 01:55 | 11.86067 | -60.33694 | 23368 ft | 423 kts | 217° |
| 2026-05-08 01:56 | 11.83620 | -60.35401 | 23628 ft | 425 kts | 216° |
| 2026-05-08 01:56 | 11.81178 | -60.37106 | 23845 ft | 425 kts | 216° |
| 2026-05-08 01:56 | 11.78723 | -60.38819 | 24008 ft | 427 kts | 216° |
| 2026-05-08 01:56 | 11.76304 | -60.40508 | 24008 ft | 424 kts | 216° |
| 2026-05-08 01:57 | 11.73858 | -60.42213 | 24010 ft | 424 kts | 216° |
| 2026-05-08 01:57 | 11.71427 | -60.43909 | 24008 ft | 423 kts | 216° |
| 2026-05-08 01:57 | 11.68983 | -60.45614 | 24010 ft | 424 kts | 216° |
| 2026-05-08 01:57 | 11.66568 | -60.47298 | 24009 ft | 424 kts | 216° |
| 2026-05-08 01:58 | 11.64123 | -60.49002 | 24009 ft | 425 kts | 216° |
| 2026-05-08 01:58 | 11.61704 | -60.50688 | 24008 ft | 424 kts | 216° |
| 2026-05-08 01:58 | 11.59269 | -60.52384 | 24008 ft | 424 kts | 216° |
| 2026-05-08 01:58 | 11.56919 | -60.54222 | 24015 ft | 423 kts | 225° |
| 2026-05-08 01:59 | 11.54928 | -60.56424 | 24019 ft | 422 kts | 229° |
| 2026-05-08 01:59 | 11.52972 | -60.58673 | 24021 ft | 421 kts | 229° |
| 2026-05-08 01:59 | 11.51012 | -60.60880 | 24022 ft | 422 kts | 229° |
| 2026-05-08 01:59 | 11.49052 | -60.63065 | 24020 ft | 422 kts | 229° |
| 2026-05-08 02:00 | 11.47075 | -60.65290 | 24020 ft | 420 kts | 229° |
| 2026-05-08 02:00 | 11.45106 | -60.67519 | 24021 ft | 421 kts | 229° |
| 2026-05-08 02:00 | 11.43165 | -60.69709 | 24015 ft | 421 kts | 229° |
| 2026-05-08 02:00 | 11.41196 | -60.71920 | 24015 ft | 420 kts | 229° |
| 2026-05-08 02:01 | 11.39224 | -60.74137 | 24016 ft | 421 kts | 229° |
| 2026-05-08 02:01 | 11.37272 | -60.76336 | 24018 ft | 421 kts | 229° |
| 2026-05-08 02:01 | 11.35306 | -60.78550 | 24018 ft | 421 kts | 229° |
| 2026-05-08 02:01 | 11.33339 | -60.80762 | 24016 ft | 418 kts | 229° |
| 2026-05-08 02:02 | 11.31417 | -60.82921 | 23840 ft | 402 kts | 229° |
| 2026-05-08 02:02 | 11.29563 | -60.85005 | 23557 ft | 390 kts | 229° |
| 2026-05-08 02:02 | 11.27763 | -60.87030 | 23233 ft | 379 kts | 229° |
| 2026-05-08 02:02 | 11.26037 | -60.88971 | 22848 ft | 371 kts | 229° |
| 2026-05-08 02:03 | 11.24312 | -60.90909 | 22385 ft | 365 kts | 229° |
| 2026-05-08 02:03 | 11.22614 | -60.92816 | 21968 ft | 359 kts | 229° |
| 2026-05-08 02:03 | 11.20965 | -60.94669 | 21577 ft | 354 kts | 229° |
| 2026-05-08 02:03 | 11.19311 | -60.96527 | 21174 ft | 349 kts | 229° |
| 2026-05-08 02:04 | 11.17685 | -60.98353 | 20779 ft | 345 kts | 229° |
| 2026-05-08 02:04 | 11.16095 | -61.00137 | 20397 ft | 342 kts | 229° |
| 2026-05-08 02:04 | 11.14503 | -61.01925 | 20011 ft | 339 kts | 229° |
| 2026-05-08 02:04 | 11.12918 | -61.03704 | 19631 ft | 336 kts | 229° |
| 2026-05-08 02:05 | 11.11350 | -61.05462 | 19265 ft | 333 kts | 229° |
| 2026-05-08 02:05 | 11.09815 | -61.07185 | 18910 ft | 331 kts | 229° |
| 2026-05-08 02:05 | 11.08268 | -61.08920 | 18549 ft | 329 kts | 230° |
| 2026-05-08 02:05 | 11.06723 | -61.10653 | 18166 ft | 327 kts | 230° |
| 2026-05-08 02:06 | 11.05201 | -61.12360 | 17757 ft | 326 kts | 230° |
| 2026-05-08 02:06 | 11.03697 | -61.14046 | 17340 ft | 324 kts | 230° |
| 2026-05-08 02:06 | 11.02172 | -61.15757 | 16866 ft | 325 kts | 230° |
| 2026-05-08 02:06 | 11.00644 | -61.17469 | 16396 ft | 326 kts | 229° |
| 2026-05-08 02:07 | 10.99128 | -61.19167 | 15939 ft | 327 kts | 230° |
| 2026-05-08 02:07 | 10.97593 | -61.20889 | 15477 ft | 329 kts | 230° |
| 2026-05-08 02:07 | 10.96060 | -61.22606 | 15002 ft | 318 kts | 229° |
| 2026-05-08 02:07 | 10.94627 | -61.24209 | 14520 ft | 300 kts | 228° |
| 2026-05-08 02:08 | 10.93251 | -61.25750 | 14021 ft | 287 kts | 228° |
| 2026-05-08 02:08 | 10.91926 | -61.27235 | 13515 ft | 278 kts | 228° |
| 2026-05-08 02:08 | 10.90642 | -61.28673 | 12979 ft | 270 kts | 228° |
| 2026-05-08 02:08 | 10.89403 | -61.30060 | 12495 ft | 264 kts | 228° |
| 2026-05-08 02:09 | 10.88176 | -61.31432 | 11933 ft | 260 kts | 228° |
| 2026-05-08 02:09 | 10.86962 | -61.32792 | 11422 ft | 256 kts | 228° |
| 2026-05-08 02:09 | 10.85786 | -61.34107 | 10908 ft | 252 kts | 227° |
| 2026-05-08 02:09 | 10.84610 | -61.35423 | 10407 ft | 248 kts | 228° |
| 2026-05-08 02:10 | 10.83485 | -61.36682 | 9999 ft | 227 kts | 227° |
| 2026-05-08 02:10 | 10.82457 | -61.37831 | 9555 ft | 215 kts | 227° |
| 2026-05-08 02:10 | 10.81471 | -61.38934 | 9097 ft | 212 kts | 227° |
| 2026-05-08 02:10 | 10.80479 | -61.40043 | 8637 ft | 210 kts | 227° |
| 2026-05-08 02:11 | 10.79511 | -61.41126 | 8181 ft | 208 kts | 227° |
| 2026-05-08 02:11 | 10.78530 | -61.42222 | 7723 ft | 207 kts | 227° |
| 2026-05-08 02:11 | 10.77573 | -61.43292 | 7259 ft | 205 kts | 227° |
| 2026-05-08 02:11 | 10.76610 | -61.44369 | 6829 ft | 205 kts | 227° |
| 2026-05-08 02:12 | 10.75652 | -61.45440 | 6388 ft | 203 kts | 227° |
| 2026-05-08 02:12 | 10.74707 | -61.46495 | 6012 ft | 214 kts | 227° |
| 2026-05-08 02:12 | 10.73700 | -61.47618 | 5699 ft | 209 kts | 227° |
| 2026-05-08 02:12 | 10.73059 | -61.48336 | 5459 ft | 202 kts | 227° |
| 2026-05-08 02:13 | 10.71820 | -61.49721 | 4986 ft | 198 kts | 227° |
| 2026-05-08 02:13 | 10.70889 | -61.50760 | 4634 ft | 199 kts | 227° |
| 2026-05-08 02:13 | 10.69948 | -61.51777 | 4299 ft | 197 kts | 219° |
| 2026-05-08 02:13 | 10.69178 | -61.52255 | 4093 ft | 194 kts | 199° |
| 2026-05-08 02:14 | 10.67422 | -61.52413 | 3692 ft | 191 kts | 172° |
| 2026-05-08 02:14 | 10.66529 | -61.52341 | 3483 ft | 190 kts | 171° |
| 2026-05-08 02:14 | 10.65226 | -61.52273 | 3195 ft | 190 kts | 174° |
| 2026-05-08 02:14 | 10.63899 | -61.52263 | 2893 ft | 191 kts | 176° |
| 2026-05-08 02:15 | 10.62569 | -61.52266 | 2739 ft | 190 kts | 176° |
| 2026-05-08 02:15 | 10.61266 | -61.52243 | 2604 ft | 187 kts | 168° |
| 2026-05-08 02:15 | 10.60110 | -61.51754 | 2512 ft | 173 kts | 135° |
| 2026-05-08 02:15 | 10.59481 | -61.50809 | 2432 ft | 159 kts | 101° |
| 2026-05-08 02:16 | 10.59399 | -61.49703 | 2365 ft | 154 kts | 83° |
| 2026-05-08 02:16 | 10.59466 | -61.48620 | 2289 ft | 153 kts | 85° |
| 2026-05-08 02:16 | 10.59490 | -61.47538 | 2215 ft | 151 kts | 86° |
| 2026-05-08 02:16 | 10.59485 | -61.46505 | 2103 ft | 144 kts | 86° |
| 2026-05-08 02:17 | 10.59473 | -61.45496 | 1985 ft | 140 kts | 87° |
| 2026-05-08 02:17 | 10.59451 | -61.44520 | 1860 ft | 136 kts | 88° |
| 2026-05-08 02:17 | 10.59429 | -61.43557 | 1641 ft | 138 kts | 87° |
| 2026-05-08 02:17 | 10.59421 | -61.42575 | 1431 ft | 139 kts | 87° |
| 2026-05-08 02:18 | 10.59428 | -61.41588 | 1278 ft | 139 kts | 87° |
| 2026-05-08 02:18 | 10.59438 | -61.40628 | 1171 ft | 137 kts | 86° |
| 2026-05-08 02:18 | 10.59455 | -61.39662 | 1040 ft | 134 kts | 86° |
| 2026-05-08 02:18 | 10.59489 | -61.38711 | 826 ft | 133 kts | 87° |
| 2026-05-08 02:19 | 10.59532 | -61.37763 | 623 ft | 133 kts | 88° |
| 2026-05-08 02:19 | 10.59525 | -61.36821 | 370 ft | 131 kts | 90° |
| 2026-05-08 02:19 | 10.59526 | -61.35891 | 189 ft | 133 kts | 89° |
| 2026-05-08 02:19 | 10.59533 | -61.34948 | 47 ft | 130 kts | 89° |
| 2026-05-08 02:20 | 10.59537 | -61.34130 | 43 ft | 93 kts | 91° |
| 2026-05-08 02:20 | 10.59542 | -61.33674 | 48 ft | 37 kts | 86° |
| 2026-05-08 02:20 | 10.59593 | -61.33503 | 49 ft | 19 kts | 50° |
| 2026-05-08 02:20 | 10.59692 | -61.33466 | 50 ft | 15 kts | 320° |
| 2026-05-08 02:21 | 10.59709 | -61.33574 | 49 ft | 17 kts | 269° |
| 2026-05-08 02:21 | 10.59715 | -61.33698 | 48 ft | 17 kts | 281° |
| 2026-05-08 02:21 | 10.59763 | -61.33732 | 48 ft | 7 kts | 357° |
| 2026-05-08 02:21 | 10.59822 | -61.33733 | 48 ft | 10 kts | 360° |
| 2026-05-08 02:22 | 10.59901 | -61.33733 | 46 ft | 13 kts | 0° |
| 2026-05-08 02:22 | 10.59996 | -61.33734 | 48 ft | 15 kts | 359° |
| 2026-05-08 02:22 | 10.60044 | -61.33761 | 46 ft | 5 kts | 284° |
| 2026-05-08 02:22 | 10.60037 | -61.33806 | 47 ft | 7 kts | 253° |
| 2026-05-08 02:23 | 10.60036 | -61.33811 | 44 ft | 0 kts | 253° |